sensor_id;sensor_type;location;lat;lon;timestamp;pressure;altitude;pressure_sealevel;temperature;humidity
50732;BME280;36700;50.488;2.544;2023-06-19T00:00:21;100542.06;;;21.08;65.88
50732;BME280;36700;50.488;2.544;2023-06-19T00:02:47;100553.81;;;21.09;65.66
50732;BME280;36700;50.488;2.544;2023-06-19T00:05:13;100553.00;;;21.08;66.04
50732;BME280;36700;50.488;2.544;2023-06-19T00:07:40;100556.81;;;21.07;65.94
50732;BME280;36700;50.488;2.544;2023-06-19T00:10:06;100564.22;;;21.07;65.79
50732;BME280;36700;50.488;2.544;2023-06-19T00:12:32;100569.69;;;21.07;66.08
50732;BME280;36700;50.488;2.544;2023-06-19T00:14:59;100574.06;;;21.08;65.93
50732;BME280;36700;50.488;2.544;2023-06-19T00:17:25;100571.88;;;21.05;65.83
50732;BME280;36700;50.488;2.544;2023-06-19T00:19:53;100580.06;;;21.05;65.46
50732;BME280;36700;50.488;2.544;2023-06-19T00:22:19;100580.06;;;21.05;65.79
50732;BME280;36700;50.488;2.544;2023-06-19T00:24:46;100580.38;;;21.03;66.32
50732;BME280;36700;50.488;2.544;2023-06-19T00:27:12;100575.97;;;21.02;66.04
50732;BME280;36700;50.488;2.544;2023-06-19T00:29:38;100585.25;;;21.01;66.08
50732;BME280;36700;50.488;2.544;2023-06-19T00:32:04;100586.09;;;21.02;65.59
50732;BME280;36700;50.488;2.544;2023-06-19T00:34:30;100584.47;;;21.01;65.86
50732;BME280;36700;50.488;2.544;2023-06-19T00:36:59;100589.09;;;21.00;65.87
50732;BME280;36700;50.488;2.544;2023-06-19T00:39:25;100601.94;;;20.99;65.46
50732;BME280;36700;50.488;2.544;2023-06-19T00:41:52;100597.56;;;20.98;65.77
50732;BME280;36700;50.488;2.544;2023-06-19T00:44:18;100600.31;;;20.98;66.12
50732;BME280;36700;50.488;2.544;2023-06-19T00:46:44;100603.34;;;20.97;65.34
50732;BME280;36700;50.488;2.544;2023-06-19T00:49:11;100598.94;;;20.96;65.78
50732;BME280;36700;50.488;2.544;2023-06-19T00:51:37;100609.88;;;20.96;65.85
50732;BME280;36700;50.488;2.544;2023-06-19T00:54:04;100612.59;;;20.96;65.59
50732;BME280;36700;50.488;2.544;2023-06-19T00:56:31;100615.63;;;20.94;65.78
50732;BME280;36700;50.488;2.544;2023-06-19T00:58:57;100604.69;;;20.94;65.55
50732;BME280;36700;50.488;2.544;2023-06-19T01:01:24;100603.03;;;20.93;65.90
50732;BME280;36700;50.488;2.544;2023-06-19T01:03:50;100622.16;;;20.93;65.62
50732;BME280;36700;50.488;2.544;2023-06-19T01:06:21;100613.97;;;20.93;65.31
50732;BME280;36700;50.488;2.544;2023-06-19T01:08:59;100617.78;;;20.92;65.62
50732;BME280;36700;50.488;2.544;2023-06-19T01:11:30;100613.44;;;20.91;65.55
50732;BME280;36700;50.488;2.544;2023-06-19T01:14:01;100613.44;;;20.91;65.73
50732;BME280;36700;50.488;2.544;2023-06-19T01:16:29;100618.34;;;20.89;65.46
50732;BME280;36700;50.488;2.544;2023-06-19T01:18:55;100617.53;;;20.89;65.54
50732;BME280;36700;50.488;2.544;2023-06-19T01:21:21;100619.47;;;20.88;65.29
50732;BME280;36700;50.488;2.544;2023-06-19T01:23:47;100632.03;;;20.89;65.53
50732;BME280;36700;50.488;2.544;2023-06-19T01:26:17;100628.72;;;20.87;65.21
50732;BME280;36700;50.488;2.544;2023-06-19T01:28:44;100637.22;;;20.85;65.40
50732;BME280;36700;50.488;2.544;2023-06-19T01:31:14;100640.75;;;20.86;65.50
50732;BME280;36700;50.488;2.544;2023-06-19T01:33:43;100641.84;;;20.85;65.41
50732;BME280;36700;50.488;2.544;2023-06-19T01:36:10;100645.66;;;20.84;65.20
50732;BME280;36700;50.488;2.544;2023-06-19T01:38:37;100652.22;;;20.83;65.04
50732;BME280;36700;50.488;2.544;2023-06-19T01:41:04;100645.66;;;20.79;65.45
50732;BME280;36700;50.488;2.544;2023-06-19T01:43:32;100662.31;;;20.82;65.22
50732;BME280;36700;50.488;2.544;2023-06-19T01:45:59;100668.88;;;20.81;65.28
50732;BME280;36700;50.488;2.544;2023-06-19T01:48:26;100666.41;;;20.80;65.96
50732;BME280;36700;50.488;2.544;2023-06-19T01:50:52;100671.88;;;20.80;65.40
50732;BME280;36700;50.488;2.544;2023-06-19T01:53:18;100675.69;;;20.79;65.58
50732;BME280;36700;50.488;2.544;2023-06-19T01:55:44;100672.16;;;20.78;65.40
50732;BME280;36700;50.488;2.544;2023-06-19T01:58:10;100678.69;;;20.77;65.04
50732;BME280;36700;50.488;2.544;2023-06-19T02:00:36;100680.63;;;20.77;64.78
50732;BME280;36700;50.488;2.544;2023-06-19T02:03:04;100684.44;;;20.76;64.94
50732;BME280;36700;50.488;2.544;2023-06-19T02:05:31;100692.66;;;20.76;65.18
50732;BME280;36700;50.488;2.544;2023-06-19T02:07:57;100698.38;;;20.74;65.06
50732;BME280;36700;50.488;2.544;2023-06-19T02:10:23;100701.91;;;20.75;65.14
50732;BME280;36700;50.488;2.544;2023-06-19T02:12:49;100694.00;;;20.73;65.18
50732;BME280;36700;50.488;2.544;2023-06-19T02:15:15;100699.47;;;20.73;65.38
50732;BME280;36700;50.488;2.544;2023-06-19T02:17:41;100701.38;;;20.72;65.51
50732;BME280;36700;50.488;2.544;2023-06-19T02:20:09;100698.91;;;20.71;65.34
50732;BME280;36700;50.488;2.544;2023-06-19T02:22:40;100699.75;;;20.71;64.82
50732;BME280;36700;50.488;2.544;2023-06-19T02:25:06;100703.56;;;20.70;64.90
50732;BME280;36700;50.488;2.544;2023-06-19T02:27:32;100701.63;;;20.71;64.98
50732;BME280;36700;50.488;2.544;2023-06-19T02:29:58;100694.81;;;20.68;65.19
50732;BME280;36700;50.488;2.544;2023-06-19T02:32:25;100712.28;;;20.67;65.35
50732;BME280;36700;50.488;2.544;2023-06-19T02:34:51;100710.38;;;20.68;65.02
50732;BME280;36700;50.488;2.544;2023-06-19T02:37:17;100712.28;;;20.67;65.51
50732;BME280;36700;50.488;2.544;2023-06-19T02:39:43;100712.28;;;20.67;64.77
50732;BME280;36700;50.488;2.544;2023-06-19T02:42:09;100713.66;;;20.65;64.56
50732;BME280;36700;50.488;2.544;2023-06-19T02:44:35;100711.75;;;20.65;65.38
50732;BME280;36700;50.488;2.544;2023-06-19T02:47:01;100715.56;;;20.64;65.07
50732;BME280;36700;50.488;2.544;2023-06-19T02:49:27;100726.50;;;20.64;65.21
50732;BME280;36700;50.488;2.544;2023-06-19T02:51:52;100729.25;;;20.64;65.08
50732;BME280;36700;50.488;2.544;2023-06-19T02:54:18;100737.44;;;20.64;65.52
50732;BME280;36700;50.488;2.544;2023-06-19T02:56:44;100736.06;;;20.62;64.98
50732;BME280;36700;50.488;2.544;2023-06-19T02:59:10;100745.06;;;20.62;65.30
50732;BME280;36700;50.488;2.544;2023-06-19T03:01:36;100742.31;;;20.62;65.46
50732;BME280;36700;50.488;2.544;2023-06-19T03:04:02;100741.53;;;20.62;65.18
50732;BME280;36700;50.488;2.544;2023-06-19T03:06:28;100749.13;;;20.59;65.30
50732;BME280;36700;50.488;2.544;2023-06-19T03:08:54;100760.66;;;20.62;64.38
50732;BME280;36700;50.488;2.544;2023-06-19T03:11:20;100762.00;;;20.59;64.94
50732;BME280;36700;50.488;2.544;2023-06-19T03:13:54;100764.72;;;20.59;64.79
50732;BME280;36700;50.488;2.544;2023-06-19T03:16:20;100778.38;;;20.59;64.76
50732;BME280;36700;50.488;2.544;2023-06-19T03:18:47;100779.47;;;20.58;64.83
50732;BME280;36700;50.488;2.544;2023-06-19T03:21:13;100775.13;;;20.57;64.90
50732;BME280;36700;50.488;2.544;2023-06-19T03:23:39;100786.84;;;20.57;64.98
50732;BME280;36700;50.488;2.544;2023-06-19T03:26:09;100780.56;;;20.57;65.07
50732;BME280;36700;50.488;2.544;2023-06-19T03:28:36;100783.56;;;20.55;64.47
50732;BME280;36700;50.488;2.544;2023-06-19T03:31:02;100780.84;;;20.55;65.17
50732;BME280;36700;50.488;2.544;2023-06-19T03:33:28;100786.31;;;20.55;65.09
50732;BME280;36700;50.488;2.544;2023-06-19T03:35:55;100781.94;;;20.54;64.83
50732;BME280;36700;50.488;2.544;2023-06-19T03:38:21;100785.47;;;20.55;65.01
50732;BME280;36700;50.488;2.544;2023-06-19T03:40:47;100789.28;;;20.54;65.14
50732;BME280;36700;50.488;2.544;2023-06-19T03:43:12;100797.50;;;20.54;65.16
50732;BME280;36700;50.488;2.544;2023-06-19T03:45:38;100787.66;;;20.53;65.06
50732;BME280;36700;50.488;2.544;2023-06-19T03:48:04;100789.56;;;20.52;65.06
50732;BME280;36700;50.488;2.544;2023-06-19T03:50:30;100786.00;;;20.52;65.29
50732;BME280;36700;50.488;2.544;2023-06-19T03:52:56;100791.47;;;20.52;64.98
50732;BME280;36700;50.488;2.544;2023-06-19T03:55:22;100785.19;;;20.51;64.76
50732;BME280;36700;50.488;2.544;2023-06-19T03:57:48;100787.09;;;20.51;64.76
50732;BME280;36700;50.488;2.544;2023-06-19T04:00:14;100783.53;;;20.50;64.90
50732;BME280;36700;50.488;2.544;2023-06-19T04:02:41;100782.72;;;20.50;65.08
50732;BME280;36700;50.488;2.544;2023-06-19T04:05:07;100780.81;;;20.50;65.00
50732;BME280;36700;50.488;2.544;2023-06-19T04:07:33;100790.91;;;20.50;64.26
50732;BME280;36700;50.488;2.544;2023-06-19T04:09:59;100792.84;;;20.49;64.25
50732;BME280;36700;50.488;2.544;2023-06-19T04:12:25;100796.66;;;20.48;64.81
50732;BME280;36700;50.488;2.544;2023-06-19T04:14:51;100797.47;;;20.49;64.37
50732;BME280;36700;50.488;2.544;2023-06-19T04:17:17;100796.66;;;20.48;64.53
50732;BME280;36700;50.488;2.544;2023-06-19T04:19:43;100799.38;;;20.48;64.39
50732;BME280;36700;50.488;2.544;2023-06-19T04:22:09;100799.38;;;20.48;64.34
50732;BME280;36700;50.488;2.544;2023-06-19T04:24:35;100797.72;;;20.47;64.96
50732;BME280;36700;50.488;2.544;2023-06-19T04:27:01;100795.00;;;20.47;64.36
50732;BME280;36700;50.488;2.544;2023-06-19T04:29:27;100792.53;;;20.45;64.36
50732;BME280;36700;50.488;2.544;2023-06-19T04:32:00;100800.75;;;20.45;64.73
50732;BME280;36700;50.488;2.544;2023-06-19T04:34:28;100799.91;;;20.45;64.69
50732;BME280;36700;50.488;2.544;2023-06-19T04:36:55;100801.81;;;20.44;64.43
50732;BME280;36700;50.488;2.544;2023-06-19T04:39:24;100796.34;;;20.44;64.41
50732;BME280;36700;50.488;2.544;2023-06-19T04:41:50;100793.59;;;20.44;64.22
50732;BME280;36700;50.488;2.544;2023-06-19T04:44:16;100791.97;;;20.43;64.30
50732;BME280;36700;50.488;2.544;2023-06-19T04:46:42;100797.16;;;20.45;64.68
50732;BME280;36700;50.488;2.544;2023-06-19T04:49:09;100801.81;;;20.44;64.30
50732;BME280;36700;50.488;2.544;2023-06-19T04:51:35;100802.91;;;20.43;64.30
50732;BME280;36700;50.488;2.544;2023-06-19T04:54:02;100805.63;;;20.43;64.59
50732;BME280;36700;50.488;2.544;2023-06-19T04:56:28;100801.00;;;20.44;64.82
50732;BME280;36700;50.488;2.544;2023-06-19T04:58:55;100801.81;;;20.44;65.04
50732;BME280;36700;50.488;2.544;2023-06-19T05:01:26;100796.34;;;20.44;64.42
50732;BME280;36700;50.488;2.544;2023-06-19T05:03:56;100803.72;;;20.44;64.42
50732;BME280;36700;50.488;2.544;2023-06-19T05:06:23;100801.00;;;20.44;64.78
50732;BME280;36700;50.488;2.544;2023-06-19T05:08:49;100800.16;;;20.43;64.60
50732;BME280;36700;50.488;2.544;2023-06-19T05:11:15;100801.81;;;20.44;64.33
50732;BME280;36700;50.488;2.544;2023-06-19T05:13:41;100798.81;;;20.46;65.00
50732;BME280;36700;50.488;2.544;2023-06-19T05:16:07;100799.66;;;20.47;64.14
50732;BME280;36700;50.488;2.544;2023-06-19T05:18:33;100811.38;;;20.47;64.78
50732;BME280;36700;50.488;2.544;2023-06-19T05:20:59;100808.38;;;20.49;64.27
50732;BME280;36700;50.488;2.544;2023-06-19T05:23:25;100807.59;;;20.48;64.20
50732;BME280;36700;50.488;2.544;2023-06-19T05:25:51;100816.56;;;20.49;64.40
50732;BME280;36700;50.488;2.544;2023-06-19T05:28:19;100813.59;;;20.50;64.74
50732;BME280;36700;50.488;2.544;2023-06-19T05:30:45;100811.13;;;20.49;64.62
50732;BME280;36700;50.488;2.544;2023-06-19T05:33:11;100807.28;;;20.50;64.25
50732;BME280;36700;50.488;2.544;2023-06-19T05:35:44;100813.59;;;20.50;64.27
50732;BME280;36700;50.488;2.544;2023-06-19T05:38:17;100811.13;;;20.49;64.22
50732;BME280;36700;50.488;2.544;2023-06-19T05:40:43;100814.69;;;20.49;64.21
50732;BME280;36700;50.488;2.544;2023-06-19T05:43:12;100815.50;;;20.50;64.52
50732;BME280;36700;50.488;2.544;2023-06-19T05:45:38;100822.63;;;20.51;63.92
50732;BME280;36700;50.488;2.544;2023-06-19T05:48:04;100827.25;;;20.50;64.50
50732;BME280;36700;50.488;2.544;2023-06-19T05:50:30;100823.41;;;20.51;64.46
50732;BME280;36700;50.488;2.544;2023-06-19T05:52:56;100825.34;;;20.51;64.35
50732;BME280;36700;50.488;2.544;2023-06-19T05:55:22;100822.63;;;20.51;64.02
50732;BME280;36700;50.488;2.544;2023-06-19T05:57:50;100827.00;;;20.52;64.00
50732;BME280;36700;50.488;2.544;2023-06-19T06:00:17;100824.25;;;20.52;64.17
50732;BME280;36700;50.488;2.544;2023-06-19T06:02:43;100830.53;;;20.52;63.87
50732;BME280;36700;50.488;2.544;2023-06-19T06:05:10;100834.91;;;20.53;63.99
50732;BME280;36700;50.488;2.544;2023-06-19T06:07:36;100833.00;;;20.54;63.69
50732;BME280;36700;50.488;2.544;2023-06-19T06:10:05;100841.75;;;20.56;63.53
50732;BME280;36700;50.488;2.544;2023-06-19T06:12:34;100843.66;;;20.55;64.11
50732;BME280;36700;50.488;2.544;2023-06-19T06:15:02;100849.13;;;20.55;63.56
50732;BME280;36700;50.488;2.544;2023-06-19T06:17:28;100855.13;;;20.57;64.00
50732;BME280;36700;50.488;2.544;2023-06-19T06:19:54;100848.03;;;20.56;63.73
50732;BME280;36700;50.488;2.544;2023-06-19T06:22:20;100858.72;;;20.58;63.68
50732;BME280;36700;50.488;2.544;2023-06-19T06:24:46;100867.72;;;20.58;63.81
50732;BME280;36700;50.488;2.544;2023-06-19T06:27:12;100869.34;;;20.59;64.21
50732;BME280;36700;50.488;2.544;2023-06-19T06:29:39;100865.88;;;20.69;63.76
50732;BME280;36700;50.488;2.544;2023-06-19T06:32:09;100861.75;;;20.72;63.99
50732;BME280;36700;50.488;2.544;2023-06-19T06:34:35;100868.09;;;20.78;63.38
50732;BME280;36700;50.488;2.544;2023-06-19T06:37:01;100868.59;;;20.75;63.59
50732;BME280;36700;50.488;2.544;2023-06-19T06:39:28;100869.97;;;20.77;63.77
50732;BME280;36700;50.488;2.544;2023-06-19T06:41:54;100869.19;;;20.77;63.37
50732;BME280;36700;50.488;2.544;2023-06-19T06:44:20;100876.84;;;20.80;63.31
50732;BME280;36700;50.488;2.544;2023-06-19T06:46:46;100879.63;;;20.85;63.45
50732;BME280;36700;50.488;2.544;2023-06-19T06:49:12;100882.94;;;20.92;62.96
50732;BME280;36700;50.488;2.544;2023-06-19T06:51:38;100892.00;;;20.98;62.98
50732;BME280;36700;50.488;2.544;2023-06-19T06:54:04;100887.91;;;21.01;63.16
50732;BME280;36700;50.488;2.544;2023-06-19T06:56:30;100887.13;;;21.10;62.69
50732;BME280;36700;50.488;2.544;2023-06-19T06:58:55;100894.22;;;21.11;62.36
50732;BME280;36700;50.488;2.544;2023-06-19T07:01:21;100887.13;;;21.21;61.99
50732;BME280;36700;50.488;2.544;2023-06-19T07:03:47;100875.91;;;21.17;62.09
50732;BME280;36700;50.488;2.544;2023-06-19T07:06:13;100876.50;;;21.24;62.24
50732;BME280;36700;50.488;2.544;2023-06-19T07:08:39;100880.31;;;21.18;62.47
50732;BME280;36700;50.488;2.544;2023-06-19T07:11:09;100886.53;;;21.08;62.48
50732;BME280;36700;50.488;2.544;2023-06-19T07:13:35;100876.09;;;20.95;62.58
50732;BME280;36700;50.488;2.544;2023-06-19T07:16:01;100879.94;;;20.94;62.74
50732;BME280;36700;50.488;2.544;2023-06-19T07:18:27;100878.00;;;20.89;63.02
50732;BME280;36700;50.488;2.544;2023-06-19T07:20:53;100881.25;;;20.86;63.38
50732;BME280;36700;50.488;2.544;2023-06-19T07:23:19;100881.31;;;20.96;63.11
50732;BME280;36700;50.488;2.544;2023-06-19T07:25:46;100884.06;;;21.02;62.44
50732;BME280;36700;50.488;2.544;2023-06-19T07:28:12;100882.53;;;21.42;61.87
50732;BME280;36700;50.488;2.544;2023-06-19T07:30:39;100880.91;;;21.51;61.19
50732;BME280;36700;50.488;2.544;2023-06-19T07:33:05;100885.75;;;21.13;62.36
50732;BME280;36700;50.488;2.544;2023-06-19T07:35:31;100890.16;;;21.19;61.89
50732;BME280;36700;50.488;2.544;2023-06-19T07:37:57;100878.75;;;21.69;60.04
50732;BME280;36700;50.488;2.544;2023-06-19T07:40:23;100885.03;;;21.59;60.85
50732;BME280;36700;50.488;2.544;2023-06-19T07:42:49;100888.63;;;21.70;60.65
50732;BME280;36700;50.488;2.544;2023-06-19T07:45:15;100888.06;;;21.68;60.53
50732;BME280;36700;50.488;2.544;2023-06-19T07:47:41;100896.78;;;21.44;60.69
50732;BME280;36700;50.488;2.544;2023-06-19T07:50:07;100904.16;;;21.33;61.57
50732;BME280;36700;50.488;2.544;2023-06-19T07:52:33;100897.00;;;21.22;61.48
50732;BME280;36700;50.488;2.544;2023-06-19T07:54:59;100905.97;;;21.17;61.87
50732;BME280;36700;50.488;2.544;2023-06-19T07:57:26;100904.03;;;21.07;61.93
50732;BME280;36700;50.488;2.544;2023-06-19T07:59:53;100908.41;;;21.03;62.22
50732;BME280;36700;50.488;2.544;2023-06-19T08:02:19;100910.84;;;20.99;62.31
50732;BME280;36700;50.488;2.544;2023-06-19T08:04:46;100917.94;;;20.95;62.24
50732;BME280;36700;50.488;2.544;2023-06-19T08:07:12;100920.38;;;20.92;62.40
50732;BME280;36700;50.488;2.544;2023-06-19T08:09:38;100925.84;;;20.92;62.36
50732;BME280;36700;50.488;2.544;2023-06-19T08:12:05;100928.00;;;20.90;62.43
50732;BME280;36700;50.488;2.544;2023-06-19T08:14:31;100925.03;;;20.91;62.64
50732;BME280;36700;50.488;2.544;2023-06-19T08:16:57;100929.38;;;20.87;63.18
50732;BME280;36700;50.488;2.544;2023-06-19T08:19:23;100923.34;;;20.85;62.57
50732;BME280;36700;50.488;2.544;2023-06-19T08:21:48;100918.13;;;20.83;62.44
50732;BME280;36700;50.488;2.544;2023-06-19T08:24:14;100919.47;;;20.81;62.74
50732;BME280;36700;50.488;2.544;2023-06-19T08:26:40;100915.66;;;20.82;62.77
50732;BME280;36700;50.488;2.544;2023-06-19T08:29:06;100909.69;;;20.85;62.57
50732;BME280;36700;50.488;2.544;2023-06-19T08:31:32;100914.06;;;20.86;62.69
50732;BME280;36700;50.488;2.544;2023-06-19T08:33:59;100914.91;;;20.87;62.52
50732;BME280;36700;50.488;2.544;2023-06-19T08:36:26;100909.91;;;20.83;62.40
50732;BME280;36700;50.488;2.544;2023-06-19T08:38:52;100916.00;;;20.85;62.49
50732;BME280;36700;50.488;2.544;2023-06-19T08:41:19;100907.25;;;20.89;62.61
50732;BME280;36700;50.488;2.544;2023-06-19T08:43:45;100903.13;;;20.86;62.20
50732;BME280;36700;50.488;2.544;2023-06-19T08:46:15;100912.97;;;20.87;62.36
50732;BME280;36700;50.488;2.544;2023-06-19T08:48:41;100911.31;;;20.86;62.53
50732;BME280;36700;50.488;2.544;2023-06-19T08:51:09;100909.69;;;20.85;62.27
50732;BME280;36700;50.488;2.544;2023-06-19T08:56:20;100912.97;;;20.87;62.07
50732;BME280;36700;50.488;2.544;2023-06-19T08:58:46;100923.09;;;20.87;62.18
50732;BME280;36700;50.488;2.544;2023-06-19T09:01:16;100915.16;;;20.85;62.29
50732;BME280;36700;50.488;2.544;2023-06-19T09:03:42;100930.13;;;20.82;61.98
50732;BME280;36700;50.488;2.544;2023-06-19T09:06:10;100929.38;;;20.87;62.95
50732;BME280;36700;50.488;2.544;2023-06-19T09:08:35;100919.00;;;20.89;63.22
50732;BME280;36700;50.488;2.544;2023-06-19T09:11:04;100917.38;;;20.88;64.26
50732;BME280;36700;50.488;2.544;2023-06-19T09:13:32;100920.63;;;20.85;63.65
50732;BME280;36700;50.488;2.544;2023-06-19T09:16:03;100920.25;;;20.76;63.39
50732;BME280;36700;50.488;2.544;2023-06-19T09:18:44;100922.19;;;20.76;62.91
50732;BME280;36700;50.488;2.544;2023-06-19T09:21:20;100924.13;;;20.80;62.98
50732;BME280;36700;50.488;2.544;2023-06-19T09:23:48;100918.94;;;20.84;63.93
50732;BME280;36700;50.488;2.544;2023-06-19T09:26:17;100930.94;;;20.78;63.36
50732;BME280;36700;50.488;2.544;2023-06-19T09:28:45;100931.50;;;20.80;63.22
50732;BME280;36700;50.488;2.544;2023-06-19T09:31:12;100925.75;;;20.81;62.99
50732;BME280;36700;50.488;2.544;2023-06-19T09:33:39;100934.28;;;20.85;62.71
50732;BME280;36700;50.488;2.544;2023-06-19T09:36:06;100933.19;;;20.86;63.05
50732;BME280;36700;50.488;2.544;2023-06-19T09:38:35;100940.03;;;20.89;62.84
50732;BME280;36700;50.488;2.544;2023-06-19T09:41:02;100935.94;;;20.91;63.17
50732;BME280;36700;50.488;2.544;2023-06-19T09:43:41;100942.28;;;20.97;62.62
50732;BME280;36700;50.488;2.544;2023-06-19T09:46:10;100942.56;;;21.01;62.01
50732;BME280;36700;50.488;2.544;2023-06-19T09:48:43;100943.09;;;20.97;62.38
50732;BME280;36700;50.488;2.544;2023-06-19T09:51:17;100932.44;;;21.01;62.79
50732;BME280;36700;50.488;2.544;2023-06-19T09:53:45;100934.94;;;21.08;63.45
50732;BME280;36700;50.488;2.544;2023-06-19T09:56:12;100924.81;;;21.08;63.39
50732;BME280;36700;50.488;2.544;2023-06-19T09:58:39;100934.16;;;21.18;63.10
50732;BME280;36700;50.488;2.544;2023-06-19T10:01:06;100926.78;;;21.23;63.32
50732;BME280;36700;50.488;2.544;2023-06-19T10:03:34;100925.19;;;21.33;63.40
50732;BME280;36700;50.488;2.544;2023-06-19T10:06:01;100921.09;;;21.35;62.70
50732;BME280;36700;50.488;2.544;2023-06-19T10:08:38;100921.09;;;21.35;62.02
50732;BME280;36700;50.488;2.544;2023-06-19T10:11:04;100912.06;;;21.35;62.41
50732;BME280;36700;50.488;2.544;2023-06-19T10:13:36;100912.06;;;21.35;62.02
50732;BME280;36700;50.488;2.544;2023-06-19T10:16:04;100918.38;;;21.35;62.15
50732;BME280;36700;50.488;2.544;2023-06-19T10:18:45;100911.25;;;21.34;61.71
50732;BME280;36700;50.488;2.544;2023-06-19T10:21:21;100905.50;;;21.36;61.45
50732;BME280;36700;50.488;2.544;2023-06-19T10:23:54;100908.78;;;21.38;62.17
50732;BME280;36700;50.488;2.544;2023-06-19T10:26:32;100907.44;;;21.41;61.71
50732;BME280;36700;50.488;2.544;2023-06-19T10:28:58;100912.06;;;21.40;61.27
50732;BME280;36700;50.488;2.544;2023-06-19T10:31:24;100912.09;;;21.45;61.29
50732;BME280;36700;50.488;2.544;2023-06-19T10:33:50;100909.63;;;21.44;61.55
50732;BME280;36700;50.488;2.544;2023-06-19T10:36:22;100905.00;;;21.49;61.37
50732;BME280;36700;50.488;2.544;2023-06-19T10:38:49;100908.28;;;21.51;60.89
50732;BME280;36700;50.488;2.544;2023-06-19T10:41:22;100907.47;;;21.56;61.53
50732;BME280;36700;50.488;2.544;2023-06-19T10:44:00;100910.75;;;21.58;61.58
50732;BME280;36700;50.488;2.544;2023-06-19T10:46:32;100908.03;;;21.58;62.28
50732;BME280;36700;50.488;2.544;2023-06-19T10:48:59;100909.09;;;21.57;61.81
50732;BME280;36700;50.488;2.544;2023-06-19T10:51:41;100911.03;;;21.62;62.58
50732;BME280;36700;50.488;2.544;2023-06-19T10:54:09;100898.44;;;21.66;63.02
50732;BME280;36700;50.488;2.544;2023-06-19T10:56:35;100904.53;;;21.73;61.40
50732;BME280;36700;50.488;2.544;2023-06-19T10:59:09;100908.91;;;21.74;61.28
50732;BME280;36700;50.488;2.544;2023-06-19T11:01:37;100912.19;;;21.76;60.63
50732;BME280;36700;50.488;2.544;2023-06-19T11:04:08;100900.97;;;21.78;60.57
50732;BME280;36700;50.488;2.544;2023-06-19T11:06:35;100901.50;;;21.80;59.81
50732;BME280;36700;50.488;2.544;2023-06-19T11:09:03;100909.72;;;21.80;59.81
50732;BME280;36700;50.488;2.544;2023-06-19T11:14:07;100906.44;;;21.93;59.00
50732;BME280;36700;50.488;2.544;2023-06-19T11:16:34;100903.44;;;21.95;59.35
50732;BME280;36700;50.488;2.544;2023-06-19T11:19:01;100904.53;;;21.94;59.41
50732;BME280;36700;50.488;2.544;2023-06-19T11:21:35;100901.53;;;22.01;57.80
50732;BME280;36700;50.488;2.544;2023-06-19T11:24:05;100903.44;;;22.00;57.98
50732;BME280;36700;50.488;2.544;2023-06-19T11:26:39;100903.97;;;22.02;58.27
50732;BME280;36700;50.488;2.544;2023-06-19T11:29:20;100903.16;;;22.07;59.00
50732;BME280;36700;50.488;2.544;2023-06-19T11:31:47;100895.75;;;22.02;59.26
50732;BME280;36700;50.488;2.544;2023-06-19T11:34:14;100897.38;;;22.03;59.40
50732;BME280;36700;50.488;2.544;2023-06-19T11:36:41;100893.59;;;22.10;59.37
50732;BME280;36700;50.488;2.544;2023-06-19T11:39:14;100895.50;;;22.19;58.97
50732;BME280;36700;50.488;2.544;2023-06-19T11:41:43;100897.13;;;22.21;58.00
50732;BME280;36700;50.488;2.544;2023-06-19T11:44:09;100886.13;;;22.31;57.88
50732;BME280;36700;50.488;2.544;2023-06-19T11:46:36;100887.50;;;22.39;57.00
50732;BME280;36700;50.488;2.544;2023-06-19T11:49:17;100880.66;;;22.41;55.81
50732;BME280;36700;50.488;2.544;2023-06-19T11:51:46;100880.09;;;22.50;55.41
50732;BME280;36700;50.488;2.544;2023-06-19T11:54:13;100879.56;;;22.53;55.18
50732;BME280;36700;50.488;2.544;2023-06-19T11:56:44;100869.69;;;22.57;54.70
50732;BME280;36700;50.488;2.544;2023-06-19T11:59:09;100872.69;;;22.55;55.07
50732;BME280;36700;50.488;2.544;2023-06-19T12:01:36;100861.72;;;22.45;55.60
50732;BME280;36700;50.488;2.544;2023-06-19T12:04:03;100872.69;;;22.50;55.41
50732;BME280;36700;50.488;2.544;2023-06-19T12:06:29;100874.34;;;22.56;55.28
50732;BME280;36700;50.488;2.544;2023-06-19T12:08:55;100868.00;;;22.61;54.92
50732;BME280;36700;50.488;2.544;2023-06-19T12:11:21;100871.06;;;22.59;53.61
50732;BME280;36700;50.488;2.544;2023-06-19T12:13:48;100863.63;;;22.60;54.36
50732;BME280;36700;50.488;2.544;2023-06-19T12:16:14;100861.47;;;22.57;54.14
50732;BME280;36700;50.488;2.544;2023-06-19T12:18:41;100857.06;;;22.61;54.27
50732;BME280;36700;50.488;2.544;2023-06-19T12:21:07;100858.72;;;22.62;53.03
50732;BME280;36700;50.488;2.544;2023-06-19T12:23:32;100850.19;;;22.64;52.76
50732;BME280;36700;50.488;2.544;2023-06-19T12:25:58;100852.94;;;22.64;52.99
50732;BME280;36700;50.488;2.544;2023-06-19T12:28:24;100848.78;;;22.77;54.68
50732;BME280;36700;50.488;2.544;2023-06-19T12:30:52;100850.16;;;22.79;56.03
50732;BME280;36700;50.488;2.544;2023-06-19T12:33:19;100852.03;;;22.84;55.27
50732;BME280;36700;50.488;2.544;2023-06-19T12:35:46;100860.25;;;22.89;54.76
50732;BME280;36700;50.488;2.544;2023-06-19T12:38:13;100850.66;;;22.86;54.12
50732;BME280;36700;50.488;2.544;2023-06-19T12:40:39;100847.41;;;22.79;54.30
50732;BME280;36700;50.488;2.544;2023-06-19T12:43:07;100847.94;;;22.81;55.42
50732;BME280;36700;50.488;2.544;2023-06-19T12:45:33;100852.06;;;22.79;55.55
50732;BME280;36700;50.488;2.544;2023-06-19T12:48:01;100840.03;;;22.75;54.94
50732;BME280;36700;50.488;2.544;2023-06-19T12:50:27;100853.69;;;22.85;55.58
50732;BME280;36700;50.488;2.544;2023-06-19T12:52:53;100847.91;;;22.92;54.44
50732;BME280;36700;50.488;2.544;2023-06-19T12:55:19;100846.53;;;22.89;54.03